This is the latest recevied weather packets stored in our database for station/object FW7644. If no packets are shown the sender has not sent any weather packets the latest 10 day(s).
| Time | Temp. | Humidity | Pressure | Rain* | Wind** | Luminosity | Snow |
|---|---|---|---|---|---|---|---|
| 1778000698 | 27.78° C | 46% | 1022.7 hPa | 0 mm | - | - | - |
| 1778000397 | 29.44° C | 44% | 1022.7 hPa | 0 mm | - | - | - |
| 1778000095 | 27.78° C | 48% | 1022.7 hPa | 0 mm | - | - | - |
| 1777999793 | 28.89° C | 46% | 1022.8 hPa | 0 mm | - | - | - |
| 1777999491 | 26.67° C | 50% | 1022.9 hPa | 0 mm | - | - | - |
| 1777999190 | 26.67° C | 50% | 1022.9 hPa | 0 mm | - | - | - |
| 1777998888 | 26.67° C | 51% | 1023 hPa | 0 mm | - | - | - |
| 1777998586 | 28.89° C | 47% | 1022.9 hPa | 0 mm | - | - | - |
| 1777998285 | 29.44° C | 45% | 1023 hPa | 0 mm | - | - | - |
| 1777997983 | 28.89° C | 45% | 1023.1 hPa | 0 mm | - | - | - |
| 1777997681 | 30° C | 45% | 1023.1 hPa | 0 mm | - | - | - |
| 1777997380 | 29.44° C | 44% | 1023.1 hPa | 0 mm | - | - | - |
| 1777997079 | 29.44° C | 46% | 1023.2 hPa | 0 mm | - | - | - |
| 1777996777 | 29.44° C | 46% | 1023.3 hPa | 0 mm | - | - | - |
| 1777996475 | 28.89° C | 49% | 1023.4 hPa | 0 mm | - | - | - |
| 1777996173 | 28.33° C | 50% | 1023.5 hPa | 0 mm | - | - | - |
| 1777995872 | 29.44° C | 47% | 1023.4 hPa | 0 mm | - | - | - |
| 1777995570 | 28.33° C | 48% | 1023.5 hPa | 0 mm | - | - | - |
| 1777995268 | 28.33° C | 49% | 1023.5 hPa | 0 mm | - | - | - |
| 1777994966 | 27.78° C | 48% | 1023.6 hPa | 0 mm | - | - | - |
| 1777994664 | 28.89° C | 49% | 1023.6 hPa | 0 mm | - | - | - |
| 1777994363 | 27.78° C | 53% | 1023.6 hPa | 0 mm | - | - | - |
| 1777994061 | 28.89° C | 53% | 1023.7 hPa | 0 mm | - | - | - |
| 1777993760 | 27.22° C | 58% | 1023.8 hPa | 0 mm | - | - | - |
| 1777993458 | 27.78° C | 56% | 1023.8 hPa | 0 mm | - | - | - |
* Rain latest hour (hover to see other rain measurements)
** Current wind speed in m/s (hover to see current wind gust speed)